createdAt,value
2023-03-11T00:02:27.150Z,5.13
2023-03-11T00:04:59.848Z,3.88
2023-03-11T00:07:31.834Z,4.65
2023-03-11T00:10:02.733Z,5.13
2023-03-11T00:12:33.593Z,2.95
2023-03-11T00:15:04.223Z,5.75
2023-03-11T00:17:35.184Z,4.13
2023-03-11T00:20:07.728Z,3.22
2023-03-11T00:22:38.496Z,2.83
2023-03-11T00:25:13.083Z,5.05
2023-03-11T00:27:44.256Z,4.28
2023-03-11T00:30:16.656Z,4.25
2023-03-11T00:32:47.912Z,3.20
2023-03-11T00:35:21.743Z,2.75
2023-03-11T00:37:55.561Z,2.75
2023-03-11T00:40:28.007Z,2.97
2023-03-11T00:42:59.531Z,2.22
2023-03-11T00:45:31.490Z,2.08
2023-03-11T00:48:03.396Z,4.93
2023-03-11T00:50:38.474Z,2.50
2023-03-11T00:53:09.908Z,3.63
2023-03-11T00:55:40.582Z,3.25
2023-03-11T00:58:11.552Z,2.08
2023-03-11T01:00:42.882Z,2.15
2023-03-11T01:03:15.150Z,2.45
2023-03-11T01:05:47.112Z,5.63
2023-03-11T01:08:18.566Z,2.83
2023-03-11T01:10:49.687Z,3.53
2023-03-11T01:13:20.517Z,1.75
2023-03-11T01:15:51.182Z,1.45
2023-03-11T01:18:22.909Z,2.53
2023-03-11T01:20:55.848Z,3.45
2023-03-11T01:23:26.661Z,3.65
2023-03-11T01:25:57.750Z,2.13
2023-03-11T01:28:28.992Z,2.92
2023-03-11T01:31:00.363Z,1.90
2023-03-11T01:33:31.590Z,2.83
2023-03-11T01:36:02.549Z,2.22
2023-03-11T01:38:34.001Z,2.63
2023-03-11T01:41:06.488Z,2.13
2023-03-11T01:43:48.770Z,1.90
2023-03-11T01:46:36.728Z,3.95
2023-03-11T01:49:12.968Z,2.15
2023-03-11T01:51:51.849Z,3.80
2023-03-11T01:54:35.207Z,4.15
2023-03-11T01:57:09.891Z,2.30
2023-03-11T01:59:46.141Z,5.18
2023-03-11T02:05:03.116Z,1.85
2023-03-11T02:07:37.867Z,3.60
2023-03-11T02:10:10.463Z,2.90
2023-03-11T02:12:45.031Z,3.38
2023-03-11T02:15:17.305Z,3.50
2023-03-11T02:17:48.341Z,2.08
2023-03-11T02:20:21.762Z,2.60
2023-03-11T02:22:53.836Z,1.30
2023-03-11T02:25:59.921Z,2.40
2023-03-11T02:28:34.011Z,1.85
2023-03-11T02:31:04.791Z,2.58
2023-03-11T02:33:38.488Z,3.50
2023-03-11T02:36:34.766Z,2.67
2023-03-11T02:39:06.727Z,5.20
2023-03-11T02:41:41.974Z,2.78
2023-03-11T02:44:15.550Z,2.65
2023-03-11T02:46:47.631Z,4.60
2023-03-11T02:49:25.312Z,1.95
2023-03-11T02:51:57.776Z,2.63
2023-03-11T02:54:28.512Z,2.63
2023-03-11T02:57:00.059Z,4.07
2023-03-11T02:59:31.014Z,3.78
2023-03-11T03:02:02.580Z,27.15
2023-03-11T03:04:33.414Z,1.50
2023-03-11T03:07:04.592Z,6.45
2023-03-11T03:09:36.128Z,2.25
2023-03-11T03:12:08.174Z,2.38
2023-03-11T03:14:38.982Z,3.70
2023-03-11T03:17:09.795Z,1.40
2023-03-11T03:19:40.903Z,1.08
2023-03-11T03:22:12.681Z,3.03
2023-03-11T03:24:43.414Z,2.90
2023-03-11T03:27:14.294Z,2.20
2023-03-11T03:29:45.230Z,1.58
2023-03-11T03:32:16.371Z,0.85
2023-03-11T03:34:47.294Z,0.88
2023-03-11T03:37:18.310Z,1.58
2023-03-11T03:39:49.840Z,4.18
2023-03-11T03:42:20.790Z,5.45
2023-03-11T03:44:51.485Z,1.95
2023-03-11T03:47:24.697Z,1.33
2023-03-11T03:49:55.431Z,2.80
2023-03-11T03:52:26.244Z,2.38
2023-03-11T03:54:56.889Z,1.33
2023-03-11T03:57:27.571Z,1.40
2023-03-11T04:00:00.105Z,0.90
2023-03-11T04:02:31.202Z,2.13
2023-03-11T04:05:02.083Z,0.77
2023-03-11T04:07:37.982Z,1.40
2023-03-11T04:10:09.073Z,1.45
2023-03-11T04:12:39.351Z,2.30
2023-03-11T04:15:18.199Z,2.72
2023-03-11T04:17:51.602Z,2.70
2023-03-11T04:20:22.417Z,2.20
2023-03-11T04:22:53.421Z,1.35
2023-03-11T04:25:23.696Z,1.05
2023-03-11T04:27:54.199Z,1.92
2023-03-11T04:30:24.618Z,1.33
2023-03-11T04:32:56.748Z,3.03
2023-03-11T04:35:27.533Z,1.27
2023-03-11T04:37:58.102Z,1.85
2023-03-11T04:40:28.513Z,3.45
2023-03-11T04:42:59.193Z,1.20
2023-03-11T04:45:29.469Z,2.60
2023-03-11T04:48:02.100Z,2.90
2023-03-11T04:50:32.750Z,1.27
2023-03-11T04:53:03.357Z,4.53
2023-03-11T04:55:34.966Z,2.72
2023-03-11T04:58:08.214Z,1.42
2023-03-11T05:00:38.641Z,2.22
2023-03-11T05:03:09.191Z,1.60
2023-03-11T05:05:39.632Z,1.85
2023-03-11T05:08:12.065Z,1.67
2023-03-11T05:10:44.496Z,2.75
2023-03-11T05:13:14.958Z,2.40
2023-03-11T05:15:46.974Z,2.00
2023-03-11T05:18:17.962Z,1.15
2023-03-11T05:20:49.763Z,2.50
2023-03-11T05:23:21.523Z,0.77
2023-03-11T05:25:52.234Z,0.65
2023-03-11T05:28:22.503Z,1.45
2023-03-11T05:30:53.178Z,2.03
2023-03-11T05:33:23.974Z,1.30
2023-03-11T05:35:55.956Z,1.95
2023-03-11T05:38:32.943Z,2.05
2023-03-11T05:41:03.634Z,2.45
2023-03-11T05:43:34.272Z,2.55
2023-03-11T05:46:05.457Z,2.83
2023-03-11T05:48:37.106Z,1.45
2023-03-11T05:51:12.293Z,2.25
2023-03-11T05:53:49.850Z,1.80
2023-03-11T05:56:22.379Z,1.00
2023-03-11T05:58:52.860Z,3.88
2023-03-11T06:01:23.619Z,2.65
2023-03-11T06:03:53.933Z,1.42
2023-03-11T06:06:25.573Z,1.75
2023-03-11T06:08:56.524Z,1.40
2023-03-11T06:11:27.442Z,3.67
2023-03-11T06:14:03.997Z,2.10
2023-03-11T06:17:30.488Z,1.38
2023-03-11T06:20:03.678Z,1.55
2023-03-11T06:22:34.003Z,2.28
2023-03-11T06:25:04.287Z,3.35
2023-03-11T06:27:34.555Z,2.50
2023-03-11T06:30:04.904Z,1.67
2023-03-11T06:32:37.027Z,1.38
2023-03-11T06:35:08.046Z,0.90
2023-03-11T06:37:41.044Z,2.25
2023-03-11T06:40:12.739Z,2.08
2023-03-11T06:42:43.184Z,2.25
2023-03-11T06:45:13.656Z,1.83
2023-03-11T06:47:43.936Z,3.03
2023-03-11T06:50:14.367Z,2.40
2023-03-11T06:52:44.651Z,1.88
2023-03-11T06:55:14.960Z,1.42
2023-03-11T06:57:47.365Z,3.53
2023-03-11T07:00:18.981Z,2.92
2023-03-11T07:02:49.249Z,1.75
2023-03-11T07:05:20.136Z,1.95
2023-03-11T07:07:51.047Z,1.48
2023-03-11T07:10:21.260Z,1.25
2023-03-11T07:12:52.250Z,0.95
2023-03-11T07:15:23.153Z,1.38
2023-03-11T07:17:53.447Z,1.88
2023-03-11T07:20:24.091Z,2.00
2023-03-11T07:22:54.471Z,2.28
2023-03-11T07:25:24.770Z,3.03
2023-03-11T07:27:55.121Z,2.58
2023-03-11T07:30:26.414Z,3.15
2023-03-11T07:32:56.734Z,3.38
2023-03-11T07:35:27.817Z,2.80
2023-03-11T07:37:58.395Z,2.35
2023-03-11T07:40:28.692Z,2.15
2023-03-11T07:42:59.040Z,2.70
2023-03-11T07:45:29.364Z,1.65
2023-03-11T07:47:59.646Z,2.10
2023-03-11T07:50:31.058Z,1.50
2023-03-11T07:53:02.320Z,3.53
2023-03-11T07:55:32.691Z,1.92
2023-03-11T07:58:03.083Z,1.05
2023-03-11T08:00:33.386Z,2.97
2023-03-11T08:03:03.571Z,1.38
2023-03-11T08:05:36.724Z,1.00
2023-03-11T08:08:07.159Z,1.48
2023-03-11T08:10:40.102Z,1.88
2023-03-11T08:13:10.351Z,1.73
2023-03-11T08:15:41.009Z,3.88
2023-03-11T08:18:11.514Z,1.63
2023-03-11T08:20:42.799Z,1.52
2023-03-11T08:23:13.305Z,3.58
2023-03-11T08:25:44.156Z,1.48
2023-03-11T08:28:14.351Z,2.13
2023-03-11T08:30:45.196Z,1.90
2023-03-11T08:33:15.645Z,2.40
2023-03-11T08:35:46.168Z,3.45
2023-03-11T08:38:17.068Z,3.63
2023-03-11T08:40:47.509Z,2.25
2023-03-11T08:43:18.179Z,3.78
2023-03-11T08:45:48.677Z,1.58
2023-03-11T08:48:19.489Z,1.85
2023-03-11T08:50:54.392Z,4.68
2023-03-11T08:53:26.252Z,2.65
2023-03-11T08:55:56.549Z,2.53
2023-03-11T08:58:26.736Z,2.30
2023-03-11T09:00:57.215Z,1.55
2023-03-11T09:03:28.075Z,2.10
2023-03-11T09:06:03.446Z,2.85
2023-03-11T09:08:37.459Z,4.22
2023-03-11T09:11:08.263Z,2.40
2023-03-11T09:13:38.816Z,2.05
2023-03-11T09:16:14.384Z,3.25
2023-03-11T09:18:44.750Z,3.30
2023-03-11T09:21:16.159Z,2.78
2023-03-11T09:23:46.439Z,2.55
2023-03-11T09:26:17.543Z,3.38
2023-03-11T09:28:50.572Z,5.40
2023-03-11T09:31:21.958Z,5.70
2023-03-11T09:33:57.968Z,4.88
2023-03-11T09:36:28.324Z,4.60
2023-03-11T09:38:58.645Z,4.18
2023-03-11T09:41:59.056Z,3.92
2023-03-11T09:44:39.462Z,4.85
2023-03-11T09:47:21.436Z,9.43
2023-03-11T09:50:14.617Z,14.75
2023-03-11T09:52:48.180Z,14.13
2023-03-11T09:55:35.660Z,14.02
2023-03-11T09:58:16.860Z,14.77
2023-03-11T10:00:47.990Z,11.45
2023-03-11T10:03:28.386Z,9.25
2023-03-11T10:06:18.636Z,6.45
2023-03-11T10:09:01.670Z,6.53
2023-03-11T10:11:42.186Z,6.78
2023-03-11T10:14:12.779Z,4.88
2023-03-11T10:17:20.802Z,8.38
2023-03-11T10:20:03.003Z,4.78
2023-03-11T10:22:45.401Z,4.20
2023-03-11T10:25:42.999Z,4.32
2023-03-11T10:28:16.833Z,5.45
2023-03-11T10:31:03.086Z,4.28
2023-03-11T10:34:05.533Z,4.22
2023-03-11T10:36:42.883Z,5.07
2023-03-11T10:39:14.097Z,9.57
2023-03-11T10:41:53.715Z,6.80
2023-03-11T10:44:38.626Z,8.10
2023-03-11T10:47:17.899Z,6.10
2023-03-11T10:49:48.648Z,7.85
2023-03-11T10:52:19.288Z,6.20
2023-03-11T10:55:01.646Z,4.57
2023-03-11T10:57:36.265Z,6.68
2023-03-11T11:00:19.321Z,4.25
2023-03-11T11:03:00.028Z,5.72
2023-03-11T11:05:35.851Z,3.38
2023-03-11T11:08:30.274Z,3.43
2023-03-11T11:11:06.042Z,5.72
2023-03-11T11:13:38.072Z,18.20
2023-03-11T11:16:24.805Z,14.25
2023-03-11T11:19:12.125Z,11.52
2023-03-11T11:24:29.878Z,5.70
2023-03-11T11:27:14.282Z,4.72
2023-03-11T11:29:45.644Z,4.70
2023-03-11T11:32:28.494Z,7.47
2023-03-11T11:35:05.136Z,4.30
2023-03-11T11:37:41.997Z,3.35
2023-03-11T11:43:08.471Z,2.97
2023-03-11T11:45:42.050Z,3.10
2023-03-11T11:48:33.699Z,2.45
2023-03-11T11:51:12.855Z,3.47
2023-03-11T11:54:11.428Z,3.15
2023-03-11T11:56:42.794Z,2.42
2023-03-11T11:59:25.117Z,1.88
2023-03-11T12:02:02.057Z,2.90
2023-03-11T12:05:11.108Z,4.28
2023-03-11T12:08:02.384Z,2.05
2023-03-11T12:10:54.391Z,3.25
2023-03-11T12:13:33.841Z,2.53
2023-03-11T12:16:32.216Z,4.50
2023-03-11T12:22:08.886Z,5.22
2023-03-11T12:24:54.404Z,5.43
2023-03-11T12:27:36.401Z,5.75
2023-03-11T12:30:32.537Z,7.47
2023-03-11T12:33:11.894Z,6.32
2023-03-11T12:35:42.984Z,6.72
2023-03-11T12:38:16.353Z,7.72
2023-03-11T12:40:53.025Z,4.93
2023-03-11T12:46:22.388Z,5.40
2023-03-11T12:49:11.426Z,8.30
2023-03-11T12:51:43.279Z,5.80
2023-03-11T12:54:34.021Z,6.32
2023-03-11T12:57:04.343Z,6.22
2023-03-11T12:59:38.059Z,4.70
2023-03-11T13:02:38.590Z,4.63
2023-03-11T13:05:21.210Z,5.18
2023-03-11T13:07:56.824Z,5.07
2023-03-11T13:10:43.444Z,6.15
2023-03-11T13:13:42.318Z,8.23
2023-03-11T13:16:19.174Z,7.30
2023-03-11T13:18:53.351Z,6.93
2023-03-11T13:21:33.203Z,6.35
2023-03-11T13:24:24.603Z,5.18
2023-03-11T13:27:26.089Z,5.88
2023-03-11T13:30:23.378Z,7.47
2023-03-11T13:33:21.416Z,6.68
2023-03-11T13:36:13.280Z,5.72
2023-03-11T13:38:59.130Z,6.43
2023-03-11T13:41:40.759Z,6.20
2023-03-11T13:44:29.507Z,5.90
2023-03-11T13:47:21.713Z,4.85
2023-03-11T13:50:20.853Z,5.95
2023-03-11T13:52:55.259Z,5.20
2023-03-11T13:55:50.752Z,5.47
2023-03-11T13:58:31.763Z,5.10
2023-03-11T14:01:04.550Z,6.07
2023-03-11T14:03:44.897Z,5.45
2023-03-11T14:06:20.165Z,7.03
2023-03-11T14:08:59.421Z,8.27
2023-03-11T14:11:31.749Z,6.85
2023-03-11T14:14:03.924Z,6.20
2023-03-11T14:16:45.839Z,5.35
2023-03-11T14:19:22.815Z,4.95
2023-03-11T14:21:54.526Z,6.65
2023-03-11T14:24:32.955Z,8.35
2023-03-11T14:27:07.142Z,9.75
2023-03-11T14:29:40.735Z,7.03
2023-03-11T14:32:36.868Z,9.10
2023-03-11T14:35:24.191Z,5.68
2023-03-11T14:37:55.728Z,5.07
2023-03-11T14:40:35.345Z,6.00
2023-03-11T14:43:12.915Z,5.35
2023-03-11T14:45:45.063Z,6.32
2023-03-11T14:48:25.358Z,5.75
2023-03-11T14:50:58.341Z,4.95
2023-03-11T14:53:43.768Z,6.55
2023-03-11T14:56:23.413Z,5.40
2023-03-11T14:59:28.729Z,11.00
2023-03-11T15:02:03.479Z,6.15
2023-03-11T15:04:40.203Z,5.82
2023-03-11T15:09:44.719Z,3.72
2023-03-11T15:12:44.588Z,5.15
2023-03-11T15:15:25.559Z,6.35
2023-03-11T15:18:03.919Z,6.15
2023-03-11T15:20:39.819Z,5.65
2023-03-11T15:23:25.266Z,6.55
2023-03-11T15:25:55.913Z,6.20
2023-03-11T15:28:34.883Z,5.18
2023-03-11T15:31:20.435Z,6.18
2023-03-11T15:33:53.741Z,6.53
2023-03-11T15:36:37.767Z,7.65
2023-03-11T15:39:44.434Z,5.22
2023-03-11T15:42:23.168Z,6.47
2023-03-11T15:45:17.337Z,6.63
2023-03-11T15:47:50.207Z,6.43
2023-03-11T15:50:43.057Z,6.70
2023-03-11T15:53:17.635Z,5.88
2023-03-11T15:55:49.536Z,8.88
2023-03-11T15:58:21.845Z,5.25
2023-03-11T16:01:00.860Z,7.68
2023-03-11T16:03:32.515Z,6.13
2023-03-11T16:06:03.159Z,7.70
2023-03-11T16:08:34.096Z,7.80
2023-03-11T16:11:05.009Z,5.97
2023-03-11T16:13:36.521Z,6.18
2023-03-11T16:16:07.560Z,7.45
2023-03-11T16:18:38.392Z,6.32
2023-03-11T16:21:13.811Z,8.52
2023-03-11T16:23:51.836Z,4.60
2023-03-11T16:26:24.703Z,6.30
2023-03-11T16:28:55.412Z,6.40
2023-03-11T16:31:26.077Z,5.47
2023-03-11T16:33:56.739Z,4.53
2023-03-11T16:36:27.360Z,4.45
2023-03-11T16:38:57.982Z,7.75
2023-03-11T16:41:29.073Z,7.90
2023-03-11T16:43:59.658Z,4.97
2023-03-11T16:46:30.479Z,5.88
2023-03-11T16:49:01.159Z,4.57
2023-03-11T16:51:31.876Z,4.53
2023-03-11T16:54:03.160Z,7.93
2023-03-11T16:56:34.825Z,3.85
2023-03-11T16:59:06.397Z,4.85
2023-03-11T17:01:40.566Z,4.97
2023-03-11T17:04:11.640Z,4.03
2023-03-11T17:06:42.411Z,5.80
2023-03-11T17:09:13.857Z,4.65
2023-03-11T17:11:44.478Z,7.32
2023-03-11T17:14:16.834Z,7.28
2023-03-11T17:16:47.478Z,8.10
2023-03-11T17:19:17.893Z,5.28
2023-03-11T17:21:48.870Z,5.45
2023-03-11T17:24:19.828Z,5.18
2023-03-11T17:26:50.045Z,4.75
2023-03-11T17:29:21.244Z,4.35
2023-03-11T17:31:51.851Z,5.25
2023-03-11T17:34:22.500Z,6.15
2023-03-11T17:36:54.331Z,5.78
2023-03-11T17:39:24.973Z,4.32
2023-03-11T17:41:55.647Z,4.35
2023-03-11T17:44:25.958Z,5.63
2023-03-11T17:46:57.412Z,5.03
2023-03-11T17:49:28.040Z,4.93
2023-03-11T17:51:59.590Z,4.18
2023-03-11T17:54:30.275Z,5.22
2023-03-11T17:57:00.519Z,7.35
2023-03-11T17:59:31.207Z,6.20
2023-03-11T18:02:01.907Z,8.25
2023-03-11T18:04:32.560Z,4.80
2023-03-11T18:07:03.195Z,7.25
2023-03-11T18:09:33.889Z,5.40
2023-03-11T18:12:04.845Z,4.82
2023-03-11T18:14:36.362Z,5.15
2023-03-11T18:17:07.271Z,4.50
2023-03-11T18:19:37.598Z,7.10
2023-03-11T18:22:08.198Z,4.32
2023-03-11T18:24:38.383Z,8.05
2023-03-11T18:27:09.105Z,5.03
2023-03-11T18:29:39.844Z,5.45
2023-03-11T18:32:10.623Z,6.05
2023-03-11T18:34:41.326Z,4.85
2023-03-11T18:37:12.062Z,4.43
2023-03-11T18:39:44.837Z,5.18
2023-03-11T18:42:16.175Z,5.47
2023-03-11T18:44:46.774Z,6.78
2023-03-11T18:47:17.422Z,8.85
2023-03-11T18:49:48.582Z,4.20
2023-03-11T18:52:19.332Z,5.88
2023-03-11T18:54:50.288Z,4.68
2023-03-11T18:57:21.164Z,6.15
2023-03-11T18:59:54.094Z,4.20
2023-03-11T19:02:25.163Z,6.70
2023-03-11T19:04:55.980Z,7.65
2023-03-11T19:07:27.951Z,4.80
2023-03-11T19:09:58.945Z,6.53
2023-03-11T19:12:31.644Z,4.97
2023-03-11T19:15:02.581Z,3.85
2023-03-11T19:17:33.522Z,4.72
2023-03-11T19:20:05.094Z,4.78
2023-03-11T19:22:35.950Z,6.80
2023-03-11T19:25:07.600Z,4.15
2023-03-11T19:27:41.217Z,4.63
2023-03-11T19:30:12.662Z,5.85
2023-03-11T19:32:44.417Z,4.75
2023-03-11T19:35:16.291Z,5.30
2023-03-11T19:37:46.888Z,4.90
2023-03-11T19:40:18.811Z,3.10
2023-03-11T19:42:49.585Z,3.95
2023-03-11T19:45:20.266Z,4.78
2023-03-11T19:47:53.656Z,4.28
2023-03-11T19:50:24.299Z,5.75
2023-03-11T19:52:55.362Z,5.60
2023-03-11T19:55:26.364Z,5.75
2023-03-11T19:57:57.655Z,5.22
2023-03-11T20:00:32.254Z,10.02
2023-03-11T20:03:04.846Z,5.45
2023-03-11T20:05:41.926Z,4.78
2023-03-11T20:08:14.757Z,7.50
2023-03-11T20:10:48.140Z,7.35
2023-03-11T20:13:20.633Z,4.72
2023-03-11T20:15:51.777Z,5.07
2023-03-11T20:18:22.689Z,6.55
2023-03-11T20:20:55.221Z,4.53
2023-03-11T20:23:26.148Z,5.45
2023-03-11T20:25:56.922Z,4.55
2023-03-11T20:28:27.609Z,5.97
2023-03-11T20:30:58.613Z,3.80
2023-03-11T20:33:29.686Z,7.55
2023-03-11T20:36:11.437Z,5.13
2023-03-11T20:38:42.903Z,6.70
2023-03-11T20:41:14.085Z,5.85
2023-03-11T20:43:45.934Z,4.70
2023-03-11T20:46:17.004Z,4.28
2023-03-11T20:48:48.858Z,5.47
2023-03-11T20:51:22.559Z,8.00
2023-03-11T20:53:53.904Z,4.00
2023-03-11T20:56:27.822Z,5.50
2023-03-11T20:59:01.155Z,6.65
2023-03-11T21:01:35.357Z,4.25
2023-03-11T21:04:07.149Z,6.03
2023-03-11T21:06:43.419Z,5.32
2023-03-11T21:09:16.965Z,4.85
2023-03-11T21:11:49.866Z,6.00
2023-03-11T21:14:21.787Z,4.65
2023-03-11T21:16:53.169Z,3.95
2023-03-11T21:19:25.436Z,3.88
2023-03-11T21:21:56.138Z,3.65
2023-03-11T21:24:27.240Z,5.18
2023-03-11T21:26:59.220Z,4.28
2023-03-11T21:29:31.370Z,5.07
2023-03-11T21:32:02.478Z,4.45
2023-03-11T21:34:33.473Z,5.07
2023-03-11T21:37:04.124Z,4.80
2023-03-11T21:39:34.570Z,5.95
2023-03-11T21:42:05.395Z,3.53
2023-03-11T21:44:36.674Z,6.57
2023-03-11T21:47:07.576Z,4.45
2023-03-11T21:49:38.470Z,3.10
2023-03-11T21:52:09.556Z,6.15
2023-03-11T21:54:40.369Z,6.30
2023-03-11T21:57:10.826Z,4.57
2023-03-11T21:59:41.389Z,4.43
2023-03-11T22:02:17.586Z,4.88
2023-03-11T22:04:48.984Z,4.30
2023-03-11T22:07:20.177Z,4.50
2023-03-11T22:10:21.662Z,5.63
2023-03-11T22:13:10.952Z,4.38
2023-03-11T22:15:43.057Z,5.80
2023-03-11T22:18:13.491Z,6.07
2023-03-11T22:20:45.128Z,7.45
2023-03-11T22:23:15.802Z,5.57
2023-03-11T22:25:47.960Z,8.43
2023-03-11T22:28:19.044Z,5.82
2023-03-11T22:30:49.680Z,6.13
2023-03-11T22:33:20.417Z,8.77
2023-03-11T22:35:59.987Z,6.85
2023-03-11T22:38:33.711Z,6.22
2023-03-11T22:41:08.888Z,6.65
2023-03-11T22:43:40.179Z,5.38
2023-03-11T22:46:11.058Z,7.18
2023-03-11T22:48:41.841Z,6.72
2023-03-11T22:51:12.858Z,6.03
2023-03-11T22:53:43.486Z,7.72
2023-03-11T22:56:18.345Z,7.28
2023-03-11T22:58:49.551Z,6.30
2023-03-11T23:01:20.212Z,7.18
2023-03-11T23:03:54.165Z,5.38
2023-03-11T23:06:26.486Z,7.95
2023-03-11T23:08:57.175Z,8.13
2023-03-11T23:11:28.084Z,6.68
2023-03-11T23:13:59.284Z,8.70
2023-03-11T23:16:30.995Z,7.07
2023-03-11T23:19:03.267Z,7.32
2023-03-11T23:21:36.402Z,6.90
2023-03-11T23:24:10.429Z,6.07
2023-03-11T23:26:41.333Z,7.22
2023-03-11T23:29:12.039Z,6.65
2023-03-11T23:31:42.652Z,5.68
2023-03-11T23:34:12.873Z,8.98
2023-03-11T23:36:44.506Z,7.70
2023-03-11T23:39:15.171Z,10.02
2023-03-11T23:41:45.882Z,7.85
2023-03-11T23:44:16.764Z,8.70
2023-03-11T23:46:47.635Z,8.27
2023-03-11T23:49:18.725Z,7.40
2023-03-11T23:51:49.433Z,9.05
2023-03-11T23:54:20.142Z,6.60
2023-03-11T23:56:52.012Z,4.35
2023-03-11T23:59:22.711Z,6.13
